AirNav   Everest Fuels
 
 524 users online  

02LA Louisiana State Police Troop G Heliport
Bossier City, Louisiana, USA

GOING TO BOSSIER CITY?


FAA INFORMATION EFFECTIVE 07 NOVEMBER 2019

Location

FAA Identifier: 02LA
Lat/Long: 32-31-53.3400N 093-39-35.7000W
32-31.889000N 093-39.595000W
32.5314833,-93.6599167
(estimated)
Elevation: 168 ft. / 51 m (estimated)
Variation: 05E (1985)
From city: 3 miles E of BOSSIER CITY, LA
Time zone: UTC -6 (UTC -5 during Daylight Saving Time)
Zip code: 71112

Heliport Operations

Heliport use: Private use. Permission required prior to landing
Control tower: no
ARTCC: FORT WORTH CENTER
FSS: DE RIDDER FLIGHT SERVICE STATION
Attendance: UNATNDD
Wind indicator: yes
Segmented circle: no

Heliport Communications

WX ASOS at DTN (4 nm W): 118.525 (318-425-7967)
WX ASOS at SHV (10 nm SW): PHONE 318-636-5767
WX AWOS-3PT at MNE (20 nm E): 119.325 (318-371-7874)

Nearby radio navigation aids

VOR radial/distance  VOR name  Freq  Var
EMGr330/8.5ELM GROVE VORTAC111.2007E
EICr145/16.3BELCHER VORTAC117.4007E

 
NDB name  Hdg/Dist  Freq  Var  ID
MANSFIELD007/28.541404EMSD -- ... -..
CARTHAGE053/38.533204ERPF .-. .--. ..-.

Heliport Services

Runway Information

Helipad H1

Dimensions: 20 x 20 ft. / 6 x 6 m
Surface: concrete
Latitude: 32-31.875667N
Longitude: 093-39.610667W
Traffic pattern: leftleft

Heliport Ownership and Management from official FAA records

Ownership: Publicly-owned
Owner: LA STATE POLICE
7919 INDEPENDENCE BLVD C-8
BATON ROUGE, LA 70806
Phone 225-922-0380
Manager: STEVEN M. LEE
7919 INDEPENDENCE BLVD C-8
BATON ROUGE, LA 70806
Phone (318) 613-2585
.

Additional Remarks

FOR CD CTC FORT WORTH ARTCC AT 817-858-7584.

Instrument Procedures

There are no published instrument procedures at 02LA.

Some nearby airports with instrument procedures:

KBAD - Barksdale Air Force Base (2 nm S)
KDTN - Shreveport Downtown Airport (4 nm W)
KSHV - Shreveport Regional Airport (10 nm SW)
KMNE - Minden Airport (20 nm E)
3F4 - Vivian Airport (27 nm NW)
 
Loc | Ops | Rwys | IFR | FBO | Links
Com | Nav | Svcs | Stats | Notes
Area around 02LA (Louisiana State Police Troop G Heliport)
 
Road maps at: MapQuest Bing Google
 
Aerial photo
No photo
 
Sectional chart

 
Airport distance calculator
Flying to Louisiana State Police Troop G Heliport? Find the distance to fly.

From to 02LA

Sunrise and sunset
Times for 22-Nov-2019
 Local
(UTC-6)
 Zulu
(UTC)
Morning civil twilight06:2512:25
Sunrise06:5212:52
Sunset17:1023:10
Evening civil twilight17:3623:36

Current date and time
Zulu (UTC)  22-Nov-2019 10:08:49
Local (UTC-6)  22-Nov-2019 04:08:49
 
METAR
KBAD 
2nm S 
220956Z AUTO 16009KT 10SM OVC075 18/18 A2993 RMK AO2 SLP137 T01790179
KDTN 
5nm W 
220953Z AUTO 18004KT 10SM OVC075 19/17 A2994 RMK AO2 SLP137 T01940172
KSHV 
10nm SW 
220956Z 17009KT 10SM OVC080 19/18 A2994 RMK AO2 SLP134 T01890178
KMNE 
20nm E 
220955Z AUTO 15004KT 10SM BKN009 BKN036 BKN085 18/17 A2997 RMK AO2 T01820172
TAF
KBAD 
2nm S 
220720Z 2207/2308 17010KT 9999 -SHRA BKN035 QNH2998INS BECMG 2214/2215 27008KT 9999 -SHRA OVC009 QNH2994INS TEMPO 2215/2218 27010KT 6000 -TSRA OVC009CB BECMG 2218/2219 30010KT 8000 -SHRA OVC007 QNH2995INS BECMG 2305/2306 33010KT 9999 NSW OVC015 QNH2998INS TX21/2221Z TN11/2302Z
KSHV 
10nm SW 
220554Z 2206/2306 18008KT P6SM VCSH SCT060 BKN250 FM220700 17010KT P6SM VCSH BKN060 FM220900 18011KT P6SM VCSH OVC025 FM221100 18008KT P6SM -SHRA OVC015 FM221500 22007KT 2SM -TSRA BR OVC004CB FM221800 32007KT 6SM -RA BR OVC007 FM230300 34008KT 4SM BR OVC004
NOTAMs
Click for the latest NOTAMs
NOTAMs are issued by the DoD/FAA and will open in a separate window not controlled by AirNav.

 

 
 

Would you like to see your business listed on this page?

 If your business provides an interesting product or service to pilots, flight crews, aircraft, or users of the Louisiana State Police Troop G Heliport, you should consider listing it here.  To start the listing process, click on the button below
 
Add a business
 

Other Pages about Louisiana State Police Troop G Heliport

Update a link
 
Copyright © AirNav, LLC. All rights reserved. Privacy Policy  Contact